Portada
METAR-TAF:

METAR-TAF

Aeroports :

Touho, Nova Caledònia

latitud: 20-47-25S, longitud: 165-15-34E, altitud: 3 m

METAR: manca

Hora: 07:09 (20:09 UTC)

Pronòstic

L'informe es va fer fa 3 hores i 9 minuts, a les 17:00 UTC
Pronòstic vàlid del 26 a les 18 UTC al 27 a les 18 UTC
Vent 10 kt del Est
Visibilitat 10 km o més
Escasses núvols a una alçada de 2500 ft
Núvols disperses a una alçada de 3500 ft
Temporalment
l' 26 a les 18 UTC al 27 a les 18 UTC
Escasses núvols a una alçada de 2000 ft, Cumulus congestus.
xàfecs de pluja
Probabilitat 40% :
Temporalment
l' 27 a les 10 UTC al 27 a les 18 UTC
Visibilitat: 3000 m
Cel ennuvolat a una alçada de 1400 ft
Núvols disperses a una alçada de 1800 ft, Cumulonimbus.
xàfecs de pluja

TAF: NWWU 261700Z 2618/2718 10010KT 9999 FEW025 SCT035 TEMPO 2618/2718 SHRA FEW020TCU PROB40 TEMPO 2710/2718 3000 SHRA BKN014 SCT018CB

Observacions i pronòstics meteorològics de més de 4000 aeroports (METAR i TAF).

Les estacions disponibles són els punts grocs i vermells al mapa.

Posi el ratolí al punt desitjat per veure el nom de l'estació.

Feu clic per veure les observacions i els pronòstics meteorològics.

Per canviar el mapa: feu clic els botons verds amb una creu de color negre per apropar; al botó verd amb un guió per allunyar la imatge; o en les fletxes verdes per a mapes adjacents.


METAR-TAF: